F/v.manga-reva — FGRC — position and weather

sailwx.info

Track history (hours):
 
Tides and Currents Weather Stations Pressure Air Temp Water Temp Dewpoint Dewpoint Depression Visibility Wind Speed Wind Dir Waves Ship Positions

F/v.manga-reva

Last reported at 2017-Nov-17 16:13 UTC. Time now 2017-Nov-22 18:35 UTC.
Position N 47°48' W 004°17'.

Length 16 m; draft 3.2 m.

Type: Fishing. MMSI: 228332000.

Date/timePositionNaut miles runAvg speedWind from/ knotsBaromVisibWave heightAir tempDewpointWater temp
2017-Nov-17 16:13N 47°48' W 004°17'1 3.3
2017-Nov-17 16:00N 47°47' W 004°18'8 8.6
2017-Nov-17 15:04N 47°42' W 004°08'15 9.0
2017-Nov-17 13:26N 47°36' W 003°48'2 3.3
2017-Nov-17 12:58N 47°35' W 003°47'1 3.2
2017-Nov-17 12:30N 47°34' W 003°45'1 2.8
2017-Nov-17 12:00N 47°33' W 003°46'1 2.7
2017-Nov-17 11:30N 47°32' W 003°45'2 3.1
2017-Nov-17 11:00N 47°30' W 003°43'2 3.2
2017-Nov-17 10:30N 47°31' W 003°41'2 4.7
2017-Nov-17 10:00N 47°31' W 003°37'2 4.6
2017-Nov-17 09:30N 47°31' W 003°34'1 2.4
2017-Nov-17 09:00N 47°32' W 003°35'2 3.2
2017-Nov-17 08:30N 47°33' W 003°37'2 3.2
2017-Nov-17 08:00N 47°33' W 003°40'1 2.9
2017-Nov-17 07:30N 47°34' W 003°42'2 3.2
2017-Nov-17 07:00N 47°34' W 003°44'1 2.5
2017-Nov-17 06:30N 47°34' W 003°46'1 3.0
2017-Nov-17 06:00N 47°33' W 003°45'1 1.2
2017-Nov-17 05:30N 47°33' W 003°46'2 4.0
2017-Nov-17 05:00N 47°31' W 003°46'2 4.2
2017-Nov-17 04:30N 47°31' W 003°43'2 3.3
2017-Nov-17 04:00N 47°33' W 003°43'2 4.0
2017-Nov-17 03:29N 47°33' W 003°46'2 3.5
2017-Nov-17 03:00N 47°31' W 003°46'2 3.9
2017-Nov-17 02:30N 47°32' W 003°44'2 4.3
2017-Nov-17 02:00N 47°34' W 003°46'2 4.5
2017-Nov-17 01:30N 47°35' W 003°49'2 4.4
2017-Nov-17 01:00N 47°37' W 003°51'2 4.2
2017-Nov-17 00:30N 47°39' W 003°53'2 4.1
2017-Nov-16 23:58N 47°41' W 003°54'4 4.2
2017-Nov-16 22:53N 47°45' W 003°55'2 4.3
2017-Nov-16 22:29N 47°47' W 003°56'1 0.5
2017-Nov-16 20:09N 47°46' W 003°55'4 8.2
2017-Nov-16 19:40N 47°42' W 003°53'2 7.3
2017-Nov-16 19:21N 47°41' W 003°51'4 7.5
2017-Nov-16 18:53N 47°39' W 003°46'3 7.5
2017-Nov-16 18:29N 47°37' W 003°42'4 7.4
2017-Nov-16 18:00N 47°36' W 003°38'2 4.3
2017-Nov-16 17:30N 47°34' W 003°36'1 2.4
2017-Nov-16 17:00N 47°35' W 003°36'2 3.2
2017-Nov-16 16:30N 47°36' W 003°38'2 3.0
2017-Nov-16 16:00N 47°35' W 003°36'1 1.4
2017-Nov-16 15:30N 47°34' W 003°37'1 2.9
2017-Nov-16 15:00N 47°36' W 003°37'1 3.0
2017-Nov-16 14:30N 47°35' W 003°39'1 2.8
2017-Nov-16 14:00N 47°36' W 003°41'1 1.8
2017-Nov-16 13:29N 47°35' W 003°41'1 3.2
2017-Nov-16 13:00N 47°35' W 003°39'1 2.9
2017-Nov-16 12:30N 47°36' W 003°37'1 2.9
2017-Nov-16 12:00N 47°35' W 003°36'1 1.0
2017-Nov-16 11:30N 47°35' W 003°36'2 3.8
2017-Nov-16 11:00N 47°36' W 003°39'1 1.7
2017-Nov-16 10:30N 47°37' W 003°38'2 4.9
2017-Nov-16 10:00N 47°37' W 003°35'1 1.7
2017-Nov-16 09:30N 47°36' W 003°35'1 2.9
2017-Nov-16 09:00N 47°35' W 003°36'0 1.0
2017-Nov-16 08:30N 47°35' W 003°36'2 3.4
2017-Nov-16 08:00N 47°36' W 003°38'1 2.0
2017-Nov-16 07:30N 47°36' W 003°39'1 2.0
2017-Nov-16 07:00N 47°36' W 003°41'27 1.8
2017-Nov-15 16:22N 47°48' W 004°17'2 4.6
2017-Nov-15 16:00N 47°46' W 004°17'6 9.4
2017-Nov-15 15:23N 47°42' W 004°12'12 6.0
2017-Nov-15 13:21N 47°34' W 003°58'2 3.3
2017-Nov-15 12:44N 47°34' W 003°55'1 4.4
2017-Nov-15 12:27N 47°34' W 003°53'0 0.3
2017-Nov-15 11:58N 47°34' W 003°53'1 3.0
2017-Nov-15 11:29N 47°33' W 003°54'1 2.2
2017-Nov-15 10:55N 47°34' W 003°55'1 3.1
2017-Nov-15 10:26N 47°34' W 003°53'1 2.1
2017-Nov-15 09:59N 47°33' W 003°52'1 2.3
2017-Nov-15 09:30N 47°34' W 003°53'0 0.5
2017-Nov-15 08:55N 47°34' W 003°53'1 1.3
2017-Nov-15 08:26N 47°33' W 003°52'0 0.2
2017-Nov-15 08:00N 47°34' W 003°52'2 3.3
2017-Nov-15 07:30N 47°34' W 003°55'2 3.1
2017-Nov-15 06:59N 47°34' W 003°57'6 5.9
2017-Nov-15 06:02N 47°38' W 004°03'0 9.0
2017-Nov-15 06:00N 47°38' W 004°03'5 8.8
2017-Nov-15 05:27N 47°41' W 004°09'4 8.8
2017-Nov-15 05:00N 47°44' W 004°14'4 8.2
2017-Nov-15 04:29N 47°47' W 004°18'1 0.1
2017-Nov-14 16:26N 47°47' W 004°17'5 8.2
2017-Nov-14 15:53N 47°43' W 004°14'17 5.4
2017-Nov-14 12:46N 47°33' W 003°55'1 0.7
2017-Nov-14 10:51N 47°34' W 003°55'2 3.0
2017-Nov-14 10:17N 47°34' W 003°53'1 1.6
2017-Nov-14 09:57N 47°34' W 003°53'0 0.4
2017-Nov-14 09:30N 47°34' W 003°53'1 2.2
2017-Nov-14 09:00N 47°34' W 003°52'0 0.5
2017-Nov-14 08:30N 47°34' W 003°52'2 3.4
2017-Nov-14 08:00N 47°34' W 003°54'2 2.7
2017-Nov-14 07:20N 47°34' W 003°57'4 4.2
2017-Nov-14 06:18N 47°38' W 004°01'11 8.9
2017-Nov-14 05:04N 47°44' W 004°14'1 8.7
2017-Nov-14 05:00N 47°44' W 004°15'  
2017-Nov-10 15:53N 47°47' W 004°17'3 8.3
2017-Nov-10 15:28N 47°44' W 004°15'17 2.3
2017-Nov-10 08:03N 47°36' W 003°52'2 2.0
2017-Nov-10 07:05N 47°35' W 003°52'0 3.0
2017-Nov-10 06:56N 47°35' W 003°51'1 3.1
2017-Nov-10 06:28N 47°36' W 003°52'17 8.4
2017-Nov-10 04:27N 47°44' W 004°14'4 8.0
2017-Nov-10 04:00N 47°46' W 004°18'1 0.1
2017-Nov-09 16:27N 47°47' W 004°17'4 9.2
2017-Nov-09 15:59N 47°45' W 004°23'5 9.2
2017-Nov-09 15:29N 47°43' W 004°30'5 9.5
2017-Nov-09 15:00N 47°42' W 004°36'4 8.1
2017-Nov-09 14:31N 47°40' W 004°41'2 2.9
2017-Nov-09 13:50N 47°40' W 004°44'4 2.5
2017-Nov-09 12:15N 47°40' W 004°50'2 3.2
2017-Nov-09 11:39N 47°42' W 004°52'1 3.5
2017-Nov-09 11:18N 47°42' W 004°53'1 2.5
2017-Nov-09 10:55N 47°41' W 004°54'2 2.3
2017-Nov-09 10:01N 47°41' W 004°51'2 3.1
2017-Nov-09 09:24N 47°42' W 004°53'1 3.6
2017-Nov-09 08:59N 47°42' W 004°55'1 1.9
2017-Nov-09 08:30N 47°41' W 004°55'13 4.2
2017-Nov-09 05:28N 47°42' W 004°36'5 8.8
2017-Nov-09 04:57N 47°44' W 004°29'4 8.7
2017-Nov-09 04:30N 47°45' W 004°24'4 8.7
2017-Nov-09 04:00N 47°47' W 004°18'0 0.0
2017-Nov-08 16:17N 47°47' W 004°18'3 9.7
2017-Nov-08 16:00N 47°45' W 004°21'6 9.5
2017-Nov-08 15:23N 47°42' W 004°28'5 9.0
2017-Nov-08 14:46N 47°39' W 004°35'7 2.9
2017-Nov-08 12:19N 47°38' W 004°46'6 3.2
2017-Nov-08 10:20N 47°41' W 004°54'1 2.5
2017-Nov-08 09:53N 47°42' W 004°55'1 1.7
2017-Nov-08 09:30N 47°42' W 004°54'2 2.7
2017-Nov-08 08:37N 47°42' W 004°51'3 2.7
2017-Nov-08 07:38N 47°42' W 004°47'2 2.8
2017-Nov-08 06:52N 47°42' W 004°44'2 5.5
2017-Nov-08 06:29N 47°42' W 004°41'5 8.2
2017-Nov-08 05:55N 47°44' W 004°34'3 8.0
2017-Nov-08 05:30N 47°44' W 004°29'4 8.1
2017-Nov-08 04:59N 47°45' W 004°23'4 8.2
2017-Nov-08 04:28N 47°47' W 004°18'1 0.1
2017-Nov-07 17:25N 47°48' W 004°17'1 0.5
2017-Nov-07 16:22N 47°47' W 004°17'  
Track history (hours):
 
Tides and Currents Weather Stations Pressure Air Temp Water Temp Dewpoint Dewpoint Depression Visibility Wind Speed Wind Dir Waves Ship Positions

F/v.manga-reva

Last reported at 2017-Nov-17 16:13 UTC. Time now 2017-Nov-22 18:35 UTC.
Position N 47°48' W 004°17'.

Length 16 m; draft 3.2 m.

Type: Fishing. MMSI: 228332000.

Date/timePositionNaut miles runAvg speedWind from/ knotsBaromVisibWave heightAir tempDewpointWater temp
2017-Nov-17 16:13N 47°48' W 004°17'1 3.3
2017-Nov-17 16:00N 47°47' W 004°18'8 8.6
2017-Nov-17 15:04N 47°42' W 004°08'15 9.0
2017-Nov-17 13:26N 47°36' W 003°48'2 3.3
2017-Nov-17 12:58N 47°35' W 003°47'1 3.2
2017-Nov-17 12:30N 47°34' W 003°45'1 2.8
2017-Nov-17 12:00N 47°33' W 003°46'1 2.7
2017-Nov-17 11:30N 47°32' W 003°45'2 3.1
2017-Nov-17 11:00N 47°30' W 003°43'2 3.2
2017-Nov-17 10:30N 47°31' W 003°41'2 4.7
2017-Nov-17 10:00N 47°31' W 003°37'2 4.6
2017-Nov-17 09:30N 47°31' W 003°34'1 2.4
2017-Nov-17 09:00N 47°32' W 003°35'2 3.2
2017-Nov-17 08:30N 47°33' W 003°37'2 3.2
2017-Nov-17 08:00N 47°33' W 003°40'1 2.9
2017-Nov-17 07:30N 47°34' W 003°42'2 3.2
2017-Nov-17 07:00N 47°34' W 003°44'1 2.5
2017-Nov-17 06:30N 47°34' W 003°46'1 3.0
2017-Nov-17 06:00N 47°33' W 003°45'1 1.2
2017-Nov-17 05:30N 47°33' W 003°46'2 4.0
2017-Nov-17 05:00N 47°31' W 003°46'2 4.2
2017-Nov-17 04:30N 47°31' W 003°43'2 3.3
2017-Nov-17 04:00N 47°33' W 003°43'2 4.0
2017-Nov-17 03:29N 47°33' W 003°46'2 3.5
2017-Nov-17 03:00N 47°31' W 003°46'2 3.9
2017-Nov-17 02:30N 47°32' W 003°44'2 4.3
2017-Nov-17 02:00N 47°34' W 003°46'2 4.5
2017-Nov-17 01:30N 47°35' W 003°49'2 4.4
2017-Nov-17 01:00N 47°37' W 003°51'2 4.2
2017-Nov-17 00:30N 47°39' W 003°53'2 4.1
2017-Nov-16 23:58N 47°41' W 003°54'4 4.2
2017-Nov-16 22:53N 47°45' W 003°55'2 4.3
2017-Nov-16 22:29N 47°47' W 003°56'1 0.5
2017-Nov-16 20:09N 47°46' W 003°55'4 8.2
2017-Nov-16 19:40N 47°42' W 003°53'2 7.3
2017-Nov-16 19:21N 47°41' W 003°51'4 7.5
2017-Nov-16 18:53N 47°39' W 003°46'3 7.5
2017-Nov-16 18:29N 47°37' W 003°42'4 7.4
2017-Nov-16 18:00N 47°36' W 003°38'2 4.3
2017-Nov-16 17:30N 47°34' W 003°36'1 2.4
2017-Nov-16 17:00N 47°35' W 003°36'2 3.2
2017-Nov-16 16:30N 47°36' W 003°38'2 3.0
2017-Nov-16 16:00N 47°35' W 003°36'1 1.4
2017-Nov-16 15:30N 47°34' W 003°37'1 2.9
2017-Nov-16 15:00N 47°36' W 003°37'1 3.0
2017-Nov-16 14:30N 47°35' W 003°39'1 2.8
2017-Nov-16 14:00N 47°36' W 003°41'1 1.8
2017-Nov-16 13:29N 47°35' W 003°41'1 3.2
2017-Nov-16 13:00N 47°35' W 003°39'1 2.9
2017-Nov-16 12:30N 47°36' W 003°37'1 2.9
2017-Nov-16 12:00N 47°35' W 003°36'1 1.0
2017-Nov-16 11:30N 47°35' W 003°36'2 3.8
2017-Nov-16 11:00N 47°36' W 003°39'1 1.7
2017-Nov-16 10:30N 47°37' W 003°38'2 4.9
2017-Nov-16 10:00N 47°37' W 003°35'1 1.7
2017-Nov-16 09:30N 47°36' W 003°35'1 2.9
2017-Nov-16 09:00N 47°35' W 003°36'0 1.0
2017-Nov-16 08:30N 47°35' W 003°36'2 3.4
2017-Nov-16 08:00N 47°36' W 003°38'1 2.0
2017-Nov-16 07:30N 47°36' W 003°39'1 2.0
2017-Nov-16 07:00N 47°36' W 003°41'27 1.8
2017-Nov-15 16:22N 47°48' W 004°17'2 4.6
2017-Nov-15 16:00N 47°46' W 004°17'6 9.4
2017-Nov-15 15:23N 47°42' W 004°12'12 6.0
2017-Nov-15 13:21N 47°34' W 003°58'2 3.3
2017-Nov-15 12:44N 47°34' W 003°55'1 4.4
2017-Nov-15 12:27N 47°34' W 003°53'0 0.3
2017-Nov-15 11:58N 47°34' W 003°53'1 3.0
2017-Nov-15 11:29N 47°33' W 003°54'1 2.2
2017-Nov-15 10:55N 47°34' W 003°55'1 3.1
2017-Nov-15 10:26N 47°34' W 003°53'1 2.1
2017-Nov-15 09:59N 47°33' W 003°52'1 2.3
2017-Nov-15 09:30N 47°34' W 003°53'0 0.5
2017-Nov-15 08:55N 47°34' W 003°53'1 1.3
2017-Nov-15 08:26N 47°33' W 003°52'0 0.2
2017-Nov-15 08:00N 47°34' W 003°52'2 3.3
2017-Nov-15 07:30N 47°34' W 003°55'2 3.1
2017-Nov-15 06:59N 47°34' W 003°57'6 5.9
2017-Nov-15 06:02N 47°38' W 004°03'0 9.0
2017-Nov-15 06:00N 47°38' W 004°03'5 8.8
2017-Nov-15 05:27N 47°41' W 004°09'4 8.8
2017-Nov-15 05:00N 47°44' W 004°14'4 8.2
2017-Nov-15 04:29N 47°47' W 004°18'1 0.1
2017-Nov-14 16:26N 47°47' W 004°17'5 8.2
2017-Nov-14 15:53N 47°43' W 004°14'17 5.4
2017-Nov-14 12:46N 47°33' W 003°55'1 0.7
2017-Nov-14 10:51N 47°34' W 003°55'2 3.0
2017-Nov-14 10:17N 47°34' W 003°53'1 1.6
2017-Nov-14 09:57N 47°34' W 003°53'0 0.4
2017-Nov-14 09:30N 47°34' W 003°53'1 2.2
2017-Nov-14 09:00N 47°34' W 003°52'0 0.5
2017-Nov-14 08:30N 47°34' W 003°52'2 3.4
2017-Nov-14 08:00N 47°34' W 003°54'2 2.7
2017-Nov-14 07:20N 47°34' W 003°57'4 4.2
2017-Nov-14 06:18N 47°38' W 004°01'11 8.9
2017-Nov-14 05:04N 47°44' W 004°14'1 8.7
2017-Nov-14 05:00N 47°44' W 004°15'  
2017-Nov-10 15:53N 47°47' W 004°17'3 8.3
2017-Nov-10 15:28N 47°44' W 004°15'17 2.3
2017-Nov-10 08:03N 47°36' W 003°52'2 2.0
2017-Nov-10 07:05N 47°35' W 003°52'0 3.0
2017-Nov-10 06:56N 47°35' W 003°51'1 3.1
2017-Nov-10 06:28N 47°36' W 003°52'17 8.4
2017-Nov-10 04:27N 47°44' W 004°14'4 8.0
2017-Nov-10 04:00N 47°46' W 004°18'1 0.1
2017-Nov-09 16:27N 47°47' W 004°17'4 9.2
2017-Nov-09 15:59N 47°45' W 004°23'5 9.2
2017-Nov-09 15:29N 47°43' W 004°30'5 9.5
2017-Nov-09 15:00N 47°42' W 004°36'4 8.1
2017-Nov-09 14:31N 47°40' W 004°41'2 2.9
2017-Nov-09 13:50N 47°40' W 004°44'4 2.5
2017-Nov-09 12:15N 47°40' W 004°50'2 3.2
2017-Nov-09 11:39N 47°42' W 004°52'1 3.5
2017-Nov-09 11:18N 47°42' W 004°53'1 2.5
2017-Nov-09 10:55N 47°41' W 004°54'2 2.3
2017-Nov-09 10:01N 47°41' W 004°51'2 3.1
2017-Nov-09 09:24N 47°42' W 004°53'1 3.6
2017-Nov-09 08:59N 47°42' W 004°55'1 1.9
2017-Nov-09 08:30N 47°41' W 004°55'13 4.2
2017-Nov-09 05:28N 47°42' W 004°36'5 8.8
2017-Nov-09 04:57N 47°44' W 004°29'4 8.7
2017-Nov-09 04:30N 47°45' W 004°24'4 8.7
2017-Nov-09 04:00N 47°47' W 004°18'0 0.0
2017-Nov-08 16:17N 47°47' W 004°18'3 9.7
2017-Nov-08 16:00N 47°45' W 004°21'6 9.5
2017-Nov-08 15:23N 47°42' W 004°28'5 9.0
2017-Nov-08 14:46N 47°39' W 004°35'7 2.9
2017-Nov-08 12:19N 47°38' W 004°46'6 3.2
2017-Nov-08 10:20N 47°41' W 004°54'1 2.5
2017-Nov-08 09:53N 47°42' W 004°55'1 1.7
2017-Nov-08 09:30N 47°42' W 004°54'2 2.7
2017-Nov-08 08:37N 47°42' W 004°51'3 2.7
2017-Nov-08 07:38N 47°42' W 004°47'2 2.8
2017-Nov-08 06:52N 47°42' W 004°44'2 5.5
2017-Nov-08 06:29N 47°42' W 004°41'5 8.2
2017-Nov-08 05:55N 47°44' W 004°34'3 8.0
2017-Nov-08 05:30N 47°44' W 004°29'4 8.1
2017-Nov-08 04:59N 47°45' W 004°23'4 8.2
2017-Nov-08 04:28N 47°47' W 004°18'1 0.1
2017-Nov-07 17:25N 47°48' W 004°17'1 0.5
2017-Nov-07 16:22N 47°47' W 004°17'  

Dump ship's entire track history